Time;durP1;ratioP1;P1;durP2;ratioP2;P2;SDS_P1;SDS_P2;PMS_P1;PMS_P2;Temp;Humidity;BMP_temperature;BMP_pressure;BME280_temperature;BME280_humidity;BME280_pressure;Samples;Min_cycle;Max_cycle;Signal;HPM_P1;HPM_P2
2022/04/13 00:01:03;;;;;;;17.63;9.98;;;;;;;5.21;81.16;99586.41;5093334;28;20261;-78
2022/04/13 00:03:30;;;;;;;15.77;8.80;;;;;;;5.22;81.21;99596.78;5093090;28;20060;-79
2022/04/13 00:06:02;;;;;;;15.90;8.77;;;;;;;5.13;81.39;99594.88;5091393;28;20056;-79
2022/04/13 00:08:40;;;;;;;17.63;9.95;;;;;;;5.10;81.70;99586.19;5083284;28;20794;-79
2022/04/13 00:11:14;;;;;;;18.48;9.30;;;;;;;5.16;81.37;99590.59;5080832;28;20080;-78
2022/04/13 00:13:58;;;;;;;16.27;9.48;;;;;;;5.17;81.45;99601.00;5112190;28;20086;-78
2022/04/13 00:16:29;;;;;;;17.85;9.60;;;;;;;5.17;81.18;99589.78;5107166;28;20085;-78
2022/04/13 00:19:02;;;;;;;16.65;9.50;;;;;;;5.13;81.70;99589.69;5085321;28;20421;-78
2022/04/13 00:21:36;;;;;;;17.20;9.40;;;;;;;5.16;81.18;99595.78;5070090;28;20154;-78
2022/04/13 00:24:07;;;;;;;16.58;8.77;;;;;;;5.11;81.14;99593.97;5070988;28;20068;-78
2022/04/13 00:26:37;;;;;;;22.23;9.13;;;;;;;5.04;81.06;99596.41;5070137;28;20055;-78
2022/04/13 00:29:13;;;;;;;18.02;8.35;;;;;;;4.84;81.04;99588.19;5069801;28;20088;-78
2022/04/13 00:31:46;;;;;;;19.17;9.07;;;;;;;4.84;81.60;99601.13;5069812;28;20537;-78
2022/04/13 00:34:34;;;;;;;17.65;8.90;;;;;;;4.84;82.04;99603.72;5068817;28;20059;-77
2022/04/13 00:37:11;;;;;;;15.98;7.88;;;;;;;4.77;81.92;99604.44;5069834;28;20056;-78
2022/04/13 00:39:44;;;;;;;13.98;8.23;;;;;;;4.80;81.42;99596.75;5068602;28;20048;-78
2022/04/13 00:42:20;;;;;;;14.32;7.88;;;;;;;4.87;81.24;99598.63;5069292;28;20059;-77
2022/04/13 00:44:50;;;;;;;15.57;8.32;;;;;;;4.81;81.67;99591.59;5069931;28;20060;-79
2022/04/13 00:47:20;;;;;;;13.32;7.57;;;;;;;4.87;81.26;99591.72;5069754;28;20106;-78
2022/04/13 00:49:56;;;;;;;13.25;7.85;;;;;;;4.86;81.63;99609.81;5069246;28;20048;-79
2022/04/13 00:53:00;;;;;;;15.98;8.27;;;;;;;4.79;81.24;99605.34;5069762;28;20175;-78
2022/04/13 00:55:37;;;;;;;16.50;7.28;;;;;;;4.66;81.94;99607.66;5069431;28;20053;-78
2022/04/13 00:58:13;;;;;;;15.07;7.80;;;;;;;4.65;81.65;99610.22;5069215;28;20421;-79
2022/04/13 01:00:48;;;;;;;16.77;8.90;;;;;;;4.67;82.11;99613.72;5069589;28;20137;-78
2022/04/13 01:03:24;;;;;;;13.60;7.38;;;;;;;4.65;81.64;99595.56;5069183;28;20052;-78
2022/04/13 01:05:55;;;;;;;12.32;6.85;;;;;;;4.62;81.56;99610.13;5068228;28;20106;-79
2022/04/13 01:08:27;;;;;;;18.73;7.75;;;;;;;4.17;81.64;99541.84;5069639;28;20053;-79
2022/04/13 01:11:09;;;;;;;16.10;8.50;;;;;;;4.59;81.41;99605.75;5069430;28;20135;-79
2022/04/13 01:13:39;;;;;;;16.55;7.82;;;;;;;4.62;81.64;99605.81;5069406;28;20067;-79
2022/04/13 01:16:12;;;;;;;13.15;8.05;;;;;;;4.64;81.92;99600.69;5068553;28;20456;-79
2022/04/13 01:18:50;;;;;;;14.38;7.57;;;;;;;4.56;81.85;99599.63;5069492;28;20072;-79
2022/04/13 01:22:05;;;;;;;13.65;7.90;;;;;;;4.51;81.46;99597.81;5069296;28;20137;-79
2022/04/13 01:24:39;;;;;;;14.55;7.65;;;;;;;4.45;81.97;99584.75;5061052;28;20060;-78
2022/04/13 01:27:28;;;;;;;14.13;7.72;;;;;;;4.54;82.34;99599.63;5069462;28;20553;-78
2022/04/13 01:30:18;;;;;;;14.00;7.72;;;;;;;4.50;81.89;99587.44;5070606;28;20441;-79
2022/04/13 01:32:53;;;;;;;13.02;7.00;;;;;;;4.60;81.75;99601.47;5078678;28;20130;-78
2022/04/13 01:35:26;;;;;;;14.98;6.93;;;;;;;4.61;81.55;99606.69;5088232;28;20059;-79
2022/04/13 01:37:56;;;;;;;11.50;6.80;;;;;;;4.51;81.58;99602.13;5089563;28;20044;-79
2022/04/13 01:40:33;;;;;;;13.70;7.70;;;;;;;4.46;81.65;99601.16;5089814;28;20051;-79
2022/04/13 01:43:09;;;;;;;13.45;7.35;;;;;;;4.37;81.69;99580.25;5087932;28;20125;-80
2022/04/13 01:45:36;;;;;;;12.82;7.03;;;;;;;4.46;81.63;99595.97;5089257;28;20052;-80
2022/04/13 01:48:04;;;;;;;12.32;7.55;;;;;;;4.52;81.39;99611.66;5089278;28;20059;-79
2022/04/13 01:50:31;;;;;;;11.85;7.13;;;;;;;4.49;81.40;99619.31;5087988;28;20070;-80
2022/04/13 01:52:58;;;;;;;13.23;7.82;;;;;;;4.09;81.85;99549.41;5089904;28;20081;-79
2022/04/13 01:55:25;;;;;;;12.60;7.15;;;;;;;4.48;81.74;99620.16;5088304;28;20143;-78
2022/04/13 01:57:52;;;;;;;11.10;6.65;;;;;;;4.41;81.40;99610.50;5089640;28;20425;-78
2022/04/13 02:00:19;;;;;;;13.48;6.88;;;;;;;4.29;81.65;99606.78;5087919;28;20097;-79
2022/04/13 02:02:46;;;;;;;14.02;7.40;;;;;;;4.44;82.21;99628.69;5089458;28;20075;-80
2022/04/13 02:05:13;;;;;;;16.52;7.28;;;;;;;4.43;81.27;99626.91;5089186;28;20044;-79
2022/04/13 02:07:40;;;;;;;12.10;6.88;;;;;;;4.26;81.51;99586.03;5070859;28;20044;-79
2022/04/13 02:10:09;;;;;;;10.65;6.47;;;;;;;4.45;81.59;99625.25;5089055;28;20852;-78
2022/04/13 02:12:37;;;;;;;12.02;7.30;;;;;;;4.40;81.53;99617.38;5089604;28;20048;-79
2022/04/13 02:15:05;;;;;;;11.30;6.53;;;;;;;4.49;81.07;99627.06;5087903;28;20063;-78
2022/04/13 02:17:32;;;;;;;12.30;6.88;;;;;;;4.31;81.53;99607.69;5089594;28;20143;-78
2022/04/13 02:19:59;;;;;;;12.00;6.78;;;;;;;4.48;81.81;99641.72;5088029;28;20567;-80
2022/04/13 02:22:26;;;;;;;11.50;6.75;;;;;;;4.46;81.47;99624.44;5089098;28;20052;-79
2022/04/13 02:25:12;;;;;;;12.07;7.22;;;;;;;4.46;80.95;99627.00;5089383;28;20048;-80
2022/04/13 02:27:40;;;;;;;11.80;6.57;;;;;;;4.45;81.70;99636.50;5091195;28;20063;-78
2022/04/13 02:30:07;;;;;;;13.43;6.88;;;;;;;4.29;81.58;99608.50;5090669;28;20046;-78
2022/04/13 02:32:42;;;;;;;12.63;6.90;;;;;;;4.45;81.21;99641.66;5090547;28;20121;-78
2022/04/13 02:35:10;;;;;;;12.10;7.30;;;;;;;4.39;81.35;99612.16;5092847;28;20566;-79
2022/04/13 02:37:37;;;;;;;11.40;7.35;;;;;;;4.55;80.60;99644.47;5094695;28;20117;-78
2022/04/13 02:40:06;;;;;;;10.73;6.60;;;;;;;4.42;80.70;99620.88;5095807;28;20055;-78
2022/04/13 02:42:34;;;;;;;9.82;5.97;;;;;;;4.52;80.91;99660.78;5096275;28;20059;-77
2022/04/13 02:45:01;;;;;;;11.02;6.38;;;;;;;4.25;80.74;99617.88;5096038;28;20077;-79
2022/04/13 02:47:28;;;;;;;11.45;6.05;;;;;;;4.38;81.16;99646.63;5096175;28;20151;-79
2022/04/13 02:49:55;;;;;;;12.20;6.60;;;;;;;4.22;81.04;99629.88;5096368;28;20055;-78
2022/04/13 02:52:28;;;;;;;11.88;7.43;;;;;;;4.14;81.17;99624.50;5094784;28;20133;-79
2022/04/13 02:54:56;;;;;;;10.60;5.93;;;;;;;4.28;81.48;99658.44;5096079;28;20071;-78
2022/04/13 02:57:23;;;;;;;9.13;6.20;;;;;;;4.25;81.61;99654.06;5095659;28;20485;-79
2022/04/13 02:59:50;;;;;;;9.93;6.13;;;;;;;4.36;81.52;99656.06;5096229;28;20051;-79
2022/04/13 03:02:19;;;;;;;9.13;5.38;;;;;;;4.41;80.61;99663.13;5095796;28;20101;-79
2022/04/13 03:04:47;;;;;;;10.23;6.05;;;;;;;4.40;81.48;99658.75;5095817;28;20100;-78
2022/04/13 03:07:17;;;;;;;11.48;6.47;;;;;;;4.41;81.13;99665.69;5095881;28;20520;-79
2022/04/13 03:09:44;;;;;;;12.38;6.65;;;;;;;4.25;80.74;99642.88;5095896;28;20062;-79
2022/04/13 03:12:13;;;;;;;11.43;6.35;;;;;;;4.47;80.40;99681.38;5094356;28;20052;-78
2022/04/13 03:14:40;;;;;;;10.02;5.80;;;;;;;4.43;81.00;99683.81;5095829;28;20623;-79
2022/04/13 03:17:08;;;;;;;11.68;6.40;;;;;;;4.43;80.71;99678.66;5094055;28;20509;-80
2022/04/13 03:19:34;;;;;;;9.93;5.75;;;;;;;4.42;80.63;99688.13;5095279;28;20064;-79
2022/04/13 03:22:02;;;;;;;9.63;5.95;;;;;;;4.29;81.10;99676.59;5095176;28;20084;-81
2022/04/13 03:24:29;;;;;;;9.77;5.88;;;;;;;4.42;80.92;99695.88;5095153;28;20051;-79
2022/04/13 03:26:57;;;;;;;10.43;5.63;;;;;;;4.43;80.71;99684.72;5093687;28;20055;-79
2022/04/13 03:29:23;;;;;;;9.00;4.95;;;;;;;4.35;80.66;99685.38;5094700;28;20109;-80
2022/04/13 03:31:52;;;;;;;7.78;5.70;;;;;;;4.27;80.41;99665.34;5093769;28;20517;-79
2022/04/13 03:34:21;;;;;;;9.40;5.80;;;;;;;4.44;80.32;99689.03;5094721;28;20106;-78
2022/04/13 03:36:49;;;;;;;13.90;6.20;;;;;;;4.35;80.88;99685.38;5095350;28;20056;-78
2022/04/13 03:39:16;;;;;;;9.80;5.35;;;;;;;4.42;80.51;99700.19;5093525;28;20471;-78
2022/04/13 03:41:44;;;;;;;8.85;5.55;;;;;;;4.43;81.06;99704.50;5101349;28;20485;-78
2022/04/13 03:44:11;;;;;;;8.48;5.53;;;;;;;4.46;80.37;99699.44;5102575;28;20074;-80
2022/04/13 03:46:38;;;;;;;8.45;5.75;;;;;;;4.40;80.35;99707.91;5102419;28;20147;-78
2022/04/13 03:49:06;;;;;;;8.02;5.32;;;;;;;4.51;80.22;99700.41;5084259;28;20075;-79
2022/04/13 03:51:34;;;;;;;10.00;5.43;;;;;;;4.49;80.08;99692.59;5096632;28;20052;-78
2022/04/13 03:54:01;;;;;;;8.00;5.30;;;;;;;4.53;80.69;99697.88;5096742;28;20081;-79
2022/04/13 03:56:29;;;;;;;10.88;6.05;;;;;;;4.55;80.40;99702.25;5097017;28;20052;-80
2022/04/13 03:58:57;;;;;;;9.43;5.57;;;;;;;4.64;80.09;99704.19;5096269;28;20052;-79
2022/04/13 04:01:25;;;;;;;8.25;5.10;;;;;;;4.49;79.41;99682.25;5099305;28;20048;-78
2022/04/13 04:03:53;;;;;;;7.20;5.22;;;;;;;4.42;79.52;99670.03;5099080;28;20060;-79
2022/04/13 04:06:20;;;;;;;7.80;5.68;;;;;;;4.60;79.85;99695.47;5114231;28;20043;-79
2022/04/13 04:08:47;;;;;;;7.03;5.20;;;;;;;4.60;79.68;99708.41;5118274;28;20086;-78
2022/04/13 04:11:14;;;;;;;11.00;5.80;;;;;;;4.58;79.66;99697.16;5095510;28;20114;-79
2022/04/13 04:13:41;;;;;;;7.03;5.25;;;;;;;4.64;79.85;99704.19;5093160;28;20101;-80
2022/04/13 04:16:09;;;;;;;6.30;4.60;;;;;;;4.59;79.55;99698.91;5093235;28;20052;-78
2022/04/13 04:18:36;;;;;;;8.43;4.97;;;;;;;4.48;79.54;99701.22;5090209;28;20047;-81
2022/04/13 04:21:03;;;;;;;9.25;5.10;;;;;;;4.57;79.31;99716.09;5080991;28;20063;-80
2022/04/13 04:23:30;;;;;;;7.40;5.03;;;;;;;4.64;79.41;99706.78;5073262;28;20056;-81
2022/04/13 04:25:57;;;;;;;5.95;4.50;;;;;;;4.64;79.28;99699.00;5073530;28;20052;-78
2022/04/13 04:28:24;;;;;;;8.02;4.45;;;;;;;4.73;78.71;99719.94;5051192;28;20493;-80
2022/04/13 04:30:51;;;;;;;10.10;4.72;;;;;;;4.78;78.74;99707.13;5091670;28;20048;-79
2022/04/13 04:33:18;;;;;;;8.57;4.75;;;;;;;4.77;78.42;99698.47;5093883;28;20048;-79
2022/04/13 04:35:47;;;;;;;7.13;4.70;;;;;;;4.81;78.26;99707.19;5091365;28;20044;-80
2022/04/13 04:38:14;;;;;;;6.35;4.25;;;;;;;4.86;78.98;99718.50;5086689;28;20055;-80
2022/04/13 04:40:41;;;;;;;7.82;4.57;;;;;;;4.80;78.57;99715.81;5080647;28;20056;-81
2022/04/13 04:43:08;;;;;;;4.80;3.97;;;;;;;4.87;78.25;99717.69;5083653;28;20044;-80
2022/04/13 04:45:35;;;;;;;6.78;4.63;;;;;;;4.92;78.73;99718.66;5073100;28;20049;-80
2022/04/13 04:48:05;;;;;;;5.93;4.68;;;;;;;4.95;77.94;99718.75;5072539;28;20411;-81
2022/04/13 04:50:34;;;;;;;4.65;4.18;;;;;;;4.96;78.23;99717.91;5071547;28;20105;-80
2022/04/13 04:53:01;;;;;;;9.18;4.95;;;;;;;4.86;77.83;99701.28;5071757;28;20052;-79
2022/04/13 04:55:29;;;;;;;6.97;4.82;;;;;;;5.04;77.32;99729.31;5071642;28;20563;-80
2022/04/13 04:57:56;;;;;;;6.97;4.35;;;;;;;4.93;77.61;99718.72;5074249;28;20060;-81
2022/04/13 05:00:23;;;;;;;6.55;4.50;;;;;;;4.87;78.10;99704.75;5073983;28;20502;-83
2022/04/13 05:02:53;;;;;;;5.47;4.35;;;;;;;4.98;77.97;99729.16;5093090;28;20082;-80
2022/04/13 05:05:24;;;;;;;8.95;4.18;;;;;;;5.03;77.53;99719.78;5092972;28;20055;-82
2022/04/13 05:07:51;;;;;;;7.40;4.53;;;;;;;5.16;77.51;99733.88;5093151;28;20047;-81
2022/04/13 05:10:18;;;;;;;7.93;4.07;;;;;;;5.26;77.45;99732.41;5092221;28;20131;-79
2022/04/13 05:12:49;;;;;;;5.97;4.05;;;;;;;5.27;76.98;99723.78;5091647;28;20425;-80
2022/04/13 05:15:17;;;;;;;4.78;3.80;;;;;;;5.30;76.47;99722.13;5092174;28;20043;-79
2022/04/13 05:17:44;;;;;;;5.45;4.53;;;;;;;5.34;76.32;99733.47;5087322;28;20072;-80
2022/04/13 05:20:11;;;;;;;8.80;4.90;;;;;;;5.18;76.47;99723.56;5092061;28;20479;-80
2022/04/13 05:22:38;;;;;;;7.85;4.25;;;;;;;5.37;76.64;99740.41;5092330;28;20051;-81
2022/04/13 05:25:11;;;;;;;10.55;6.22;;;;;;;5.32;76.54;99733.41;5087016;28;20060;-81
2022/04/13 05:27:39;;;;;;;9.88;4.60;;;;;;;5.39;76.75;99744.78;5090646;28;20056;-81
2022/04/13 05:30:07;;;;;;;8.63;5.18;;;;;;;5.26;76.31;99740.16;5072442;28;20544;-81
2022/04/13 05:32:56;;;;;;;8.77;5.38;;;;;;;5.15;76.61;99719.22;5091041;28;20054;-79
2022/04/13 05:35:25;;;;;;;11.13;5.82;;;;;;;5.33;76.62;99753.31;5091546;28;20123;-81
2022/04/13 05:37:53;;;;;;;7.55;5.18;;;;;;;5.24;76.68;99739.25;5092320;28;20502;-80
2022/04/13 05:40:22;;;;;;;8.57;5.40;;;;;;;5.27;75.99;99766.13;5092123;28;20059;-80
2022/04/13 05:42:50;;;;;;;10.93;5.70;;;;;;;5.25;76.50;99744.47;5092399;28;20044;-81
2022/04/13 05:45:17;;;;;;;7.50;5.25;;;;;;;5.28;76.31;99743.66;5088176;28;20062;-80
2022/04/13 05:47:44;;;;;;;8.30;5.57;;;;;;;5.34;75.84;99761.94;5091510;28;20086;-81
2022/04/13 05:50:12;;;;;;;9.77;5.00;;;;;;;5.34;76.43;99767.13;5091248;28;20044;-80
2022/04/13 05:52:43;;;;;;;13.93;6.28;;;;;;;5.32;76.45;99771.41;5092902;28;20047;-80
2022/04/13 05:55:11;;;;;;;15.07;7.75;;;;;;;5.38;76.37;99784.50;5092174;28;20094;-80
2022/04/13 05:57:38;;;;;;;8.18;5.25;;;;;;;5.28;76.39;99780.81;5089700;28;20052;-81
2022/04/13 06:00:08;;;;;;;7.55;5.03;;;;;;;5.21;76.07;99784.09;5092231;28;20048;-80
2022/04/13 06:02:35;;;;;;;8.35;5.50;;;;;;;5.16;76.29;99777.91;5092248;28;20047;-80
2022/04/13 06:05:04;;;;;;;9.38;5.72;;;;;;;5.26;76.35;99787.66;5093055;28;20047;-80
2022/04/13 06:07:32;;;;;;;9.20;5.20;;;;;;;5.28;76.20;99778.22;5094788;28;20048;-81
2022/04/13 06:10:01;;;;;;;6.82;5.25;;;;;;;5.32;76.23;99781.75;5076849;28;20056;-83
2022/04/13 06:12:31;;;;;;;9.15;5.43;;;;;;;5.40;76.06;99780.22;5091958;28;20514;-78
2022/04/13 06:15:09;;;;;;;10.27;5.25;;;;;;;5.33;76.35;99778.31;5102245;28;20051;-79
2022/04/13 06:17:37;;;;;;;7.45;5.32;;;;;;;5.22;76.22;99769.44;5084374;28;20583;-81
2022/04/13 06:20:05;;;;;;;11.07;5.15;;;;;;;5.29;76.51;99794.63;5094089;28;20437;-82
2022/04/13 06:22:36;;;;;;;7.82;5.38;;;;;;;5.21;76.15;99796.19;5095987;28;20101;-81
2022/04/13 06:25:03;;;;;;;7.43;5.05;;;;;;;5.20;77.26;99782.34;5096379;28;20044;-82
2022/04/13 06:27:31;;;;;;;9.02;5.47;;;;;;;5.27;76.50;99792.00;5096298;28;20147;-81
2022/04/13 06:29:58;;;;;;;7.43;5.00;;;;;;;5.36;76.87;99788.75;5095495;28;20054;-78
2022/04/13 06:32:35;;;;;;;9.40;5.03;;;;;;;5.21;76.70;99791.00;5096063;28;20094;-82
2022/04/13 06:35:05;;;;;;;7.38;5.30;;;;;;;5.26;76.91;99807.50;5096589;28;20113;-79
2022/04/13 06:37:36;;;;;;;10.75;5.45;;;;;;;5.22;77.05;99806.56;5098457;28;20421;-80
2022/04/13 06:40:04;;;;;;;9.88;5.40;;;;;;;5.19;76.98;99782.31;5096896;28;20052;-82
2022/04/13 06:42:36;;;;;;;8.60;5.50;;;;;;;5.39;77.06;99827.69;5095805;28;20067;-80
2022/04/13 06:45:05;;;;;;;9.15;5.50;;;;;;;5.32;76.41;99793.00;5096243;28;20056;-81
2022/04/13 06:47:32;;;;;;;9.23;5.47;;;;;;;5.43;76.13;99807.91;5095090;28;20056;-79
2022/04/13 06:50:01;;;;;;;9.52;6.00;;;;;;;5.57;75.96;99811.72;5097360;28;20063;-78
2022/04/13 06:52:50;;;;;;;9.38;6.47;;;;;;;5.50;75.98;99810.66;5095526;28;20063;-82
2022/04/13 06:55:17;;;;;;;8.50;5.90;;;;;;;5.54;76.31;99821.97;5096663;28;20056;-78
2022/04/13 06:57:44;;;;;;;11.20;6.80;;;;;;;5.43;75.95;99819.16;5095397;28;20087;-79
2022/04/13 07:00:12;;;;;;;8.88;5.90;;;;;;;5.38;76.44;99815.59;5096586;28;20067;-79
2022/04/13 07:02:40;;;;;;;11.20;6.00;;;;;;;5.44;76.61;99820.00;5096430;28;20052;-79
2022/04/13 07:05:28;;;;;;;11.40;6.43;;;;;;;5.61;76.11;99825.59;5094448;28;20051;-81
2022/04/13 07:07:56;;;;;;;12.07;6.75;;;;;;;5.77;75.33;99825.09;5096892;28;20143;-80
2022/04/13 07:10:23;;;;;;;7.55;5.57;;;;;;;5.74;75.03;99809.47;5095269;28;20130;-80
2022/04/13 07:12:50;;;;;;;10.02;5.93;;;;;;;6.02;75.03;99829.09;5095340;28;20068;-79
2022/04/13 07:15:17;;;;;;;8.13;5.72;;;;;;;6.14;74.68;99825.91;5095180;28;20054;-80
2022/04/13 07:17:47;;;;;;;9.32;5.82;;;;;;;6.07;74.09;99803.31;5095008;28;20067;-81
2022/04/13 07:20:15;;;;;;;8.13;5.53;;;;;;;6.26;73.97;99826.16;5094840;28;20146;-80
2022/04/13 07:22:53;;;;;;;9.05;5.88;;;;;;;6.35;73.74;99815.09;5094022;28;20062;-80
2022/04/13 07:25:21;;;;;;;8.85;6.20;;;;;;;6.59;73.03;99840.66;5096412;28;20048;-81
2022/04/13 07:27:49;;;;;;;10.50;6.88;;;;;;;6.73;72.77;99835.69;5106842;28;20051;-80
2022/04/13 07:30:16;;;;;;;8.65;5.18;;;;;;;6.69;72.46;99827.00;5106504;28;20129;-81
2022/04/13 07:32:45;;;;;;;7.65;5.80;;;;;;;6.55;72.65;99813.75;5102937;28;20052;-80
2022/04/13 07:35:16;;;;;;;9.52;5.80;;;;;;;6.78;72.32;99807.25;5103422;28;20052;-79
2022/04/13 07:37:46;;;;;;;9.23;5.80;;;;;;;6.96;71.75;99825.72;5097598;28;20068;-80
2022/04/13 07:40:14;;;;;;;9.82;5.90;;;;;;;7.00;70.75;99819.75;5097538;28;20531;-79
2022/04/13 07:42:41;;;;;;;10.13;5.38;;;;;;;7.18;71.28;99832.16;5095287;28;20066;-80
2022/04/13 07:45:08;;;;;;;7.72;4.68;;;;;;;7.21;70.97;99846.94;5094015;28;20056;-82
2022/04/13 07:47:37;;;;;;;7.70;5.00;;;;;;;7.18;70.94;99843.44;5095377;28;20074;-83
2022/04/13 07:50:12;;;;;;;9.35;5.38;;;;;;;7.17;71.17;99846.00;5096409;28;20044;-82
2022/04/13 07:52:41;;;;;;;8.80;5.25;;;;;;;7.13;70.87;99816.50;5091091;28;20097;-83
2022/04/13 07:55:12;;;;;;;7.28;5.07;;;;;;;7.01;70.46;99831.88;5074136;28;20048;-81
2022/04/13 07:57:40;;;;;;;8.32;5.00;;;;;;;6.96;70.79;99847.38;5109785;28;20083;-81
2022/04/13 08:00:10;;;;;;;8.05;5.40;;;;;;;6.74;71.05;99809.78;5115496;28;20063;-81
2022/04/13 08:02:42;;;;;;;6.60;4.95;;;;;;;7.06;70.76;99842.38;5102742;28;20040;-81
2022/04/13 08:05:12;;;;;;;10.57;5.50;;;;;;;7.20;70.70;99852.97;5074119;28;20067;-81
2022/04/13 08:07:40;;;;;;;6.78;4.93;;;;;;;7.26;69.94;99840.94;5073273;28;20048;-81
2022/04/13 08:10:07;;;;;;;11.52;6.50;;;;;;;7.04;69.82;99803.38;5078931;28;20052;-81
2022/04/13 08:12:34;;;;;;;7.65;5.22;;;;;;;7.26;69.36;99832.28;5087626;28;20068;-80
2022/04/13 08:15:05;;;;;;;8.48;5.75;;;;;;;7.23;69.62;99814.03;5088720;28;20056;-82
2022/04/13 08:17:34;;;;;;;13.70;7.00;;;;;;;7.74;68.69;99858.19;5089847;28;20066;-80
2022/04/13 08:20:02;;;;;;;18.30;9.55;;;;;;;7.83;67.22;99835.75;5092422;28;20055;-82
2022/04/13 08:22:29;;;;;;;9.82;5.95;;;;;;;7.70;68.04;99855.50;5075346;28;20537;-81
2022/04/13 08:24:56;;;;;;;9.27;6.00;;;;;;;7.66;68.77;99861.50;5076496;28;20106;-80
2022/04/13 08:27:23;;;;;;;9.00;5.15;;;;;;;7.81;67.83;99846.13;5092123;28;20479;-79
2022/04/13 08:29:50;;;;;;;8.85;5.20;;;;;;;8.13;67.43;99858.69;5092848;28;20047;-79
2022/04/13 08:32:20;;;;;;;11.23;5.53;;;;;;;7.99;66.75;99811.69;5092407;28;20044;-81
2022/04/13 08:34:51;;;;;;;11.02;5.65;;;;;;;8.21;67.16;99855.34;5091320;28;20475;-79
2022/04/13 08:37:20;;;;;;;13.32;5.78;;;;;;;8.20;66.67;99844.94;5092692;28;20074;-80
2022/04/13 08:39:47;;;;;;;10.32;6.25;;;;;;;7.85;67.40;99847.94;5092519;28;20139;-80
2022/04/13 08:42:26;;;;;;;15.32;7.53;;;;;;;7.69;67.61;99844.22;5091306;28;20056;-83
2022/04/13 08:44:53;;;;;;;12.98;6.60;;;;;;;7.65;68.05;99855.44;5094470;28;20047;-84
2022/04/13 08:47:22;;;;;;;13.32;6.78;;;;;;;7.61;67.94;99863.16;5095146;28;20054;-83
2022/04/13 08:49:51;;;;;;;10.77;6.65;;;;;;;7.63;68.05;99857.13;5093728;28;20062;-82
2022/04/13 08:52:31;;;;;;;15.30;7.22;;;;;;;7.50;67.39;99840.47;5093621;28;20059;-80
2022/04/13 08:55:06;;;;;;;12.35;6.68;;;;;;;7.70;67.53;99852.88;5075436;28;20101;-83
2022/04/13 08:57:37;;;;;;;11.50;6.68;;;;;;;7.80;67.42;99847.84;5092110;28;20060;-84
2022/04/13 09:00:10;;;;;;;12.30;6.45;;;;;;;7.91;67.31;99860.13;5088780;28;20140;-83
2022/04/13 09:02:47;;;;;;;10.25;6.28;;;;;;;8.09;67.11;99867.34;5072174;28;20067;-84
2022/04/13 09:05:19;;;;;;;13.68;6.50;;;;;;;7.96;66.61;99842.88;5092066;28;20059;-83
2022/04/13 09:07:53;;;;;;;12.70;7.00;;;;;;;7.90;67.38;99854.06;5092347;28;20052;-82
2022/04/13 09:10:23;;;;;;;12.65;6.03;;;;;;;7.67;67.55;99864.13;5075139;28;20054;-81
2022/04/13 09:12:51;;;;;;;9.43;6.47;;;;;;;7.49;68.41;99849.13;5093545;28;20074;-82
2022/04/13 09:15:18;;;;;;;13.70;7.53;;;;;;;7.73;68.08;99852.94;5095296;28;20058;-85
2022/04/13 09:17:46;;;;;;;13.45;6.93;;;;;;;7.95;67.54;99870.59;5091321;28;20084;-83
2022/04/13 09:20:13;;;;;;;12.20;7.00;;;;;;;7.76;67.51;99858.19;5093740;28;20489;-81
2022/04/13 09:22:42;;;;;;;13.38;6.43;;;;;;;7.85;67.96;99855.75;5093811;28;20055;-83
2022/04/13 09:25:10;;;;;;;12.80;7.15;;;;;;;8.08;67.04;99844.75;5092709;28;20048;-81
2022/04/13 09:27:38;;;;;;;17.23;8.05;;;;;;;8.31;66.76;99853.72;5092609;28;20052;-81
2022/04/13 09:30:06;;;;;;;15.15;6.85;;;;;;;8.71;65.54;99843.81;5090975;28;20471;-80
2022/04/13 09:32:34;;;;;;;13.23;6.82;;;;;;;8.90;64.98;99828.34;5093063;28;20620;-82
2022/04/13 09:35:02;;;;;;;13.85;7.10;;;;;;;9.14;64.42;99853.75;5093130;28;20102;-80
2022/04/13 09:37:31;;;;;;;15.43;6.93;;;;;;;9.19;64.14;99847.75;5092897;28;20055;-82
2022/04/13 09:39:59;;;;;;;13.48;7.47;;;;;;;9.15;64.26;99852.91;5096174;28;20065;-80
2022/04/13 09:42:28;;;;;;;10.35;6.35;;;;;;;8.94;64.50;99819.72;5094993;28;20083;-81
2022/04/13 09:44:57;;;;;;;13.32;7.10;;;;;;;9.21;63.74;99842.56;5095933;28;20591;-83
2022/04/13 09:47:34;;;;;;;12.18;6.55;;;;;;;9.30;63.78;99847.84;5096331;28;20058;-82
2022/04/13 09:50:01;;;;;;;14.05;7.53;;;;;;;9.34;63.44;99843.53;5097626;28;20409;-80
2022/04/13 09:52:39;;;;;;;16.27;7.68;;;;;;;9.39;63.47;99858.34;5098776;28;20052;-80
2022/04/13 09:55:07;;;;;;;11.48;6.93;;;;;;;9.39;63.18;99858.34;5098458;28;20055;-82
2022/04/13 09:57:34;;;;;;;19.13;6.82;;;;;;;9.28;63.00;99848.69;5096578;28;20074;-78
2022/04/13 10:00:06;;;;;;;13.63;6.53;;;;;;;9.32;63.64;99837.44;5095604;28;20498;-82
2022/04/13 10:02:44;;;;;;;15.63;7.35;;;;;;;9.35;63.57;99858.28;5095780;28;20048;-83
2022/04/13 10:05:21;;;;;;;10.18;6.55;;;;;;;9.40;63.44;99854.88;5096916;28;20048;-81
2022/04/13 10:08:02;;;;;;;13.15;6.65;;;;;;;9.37;63.65;99856.56;5079466;28;20059;-81
2022/04/13 10:10:30;;;;;;;14.63;7.35;;;;;;;9.53;63.66;99858.47;5096802;28;20076;-81
2022/04/13 10:12:57;;;;;;;13.63;7.97;;;;;;;9.73;62.68;99865.53;5097485;28;20052;-82
2022/04/13 10:15:24;;;;;;;12.77;7.05;;;;;;;9.77;62.58;99854.28;5096815;28;20055;-80
2022/04/13 10:17:59;;;;;;;13.23;7.20;;;;;;;10.03;61.70;99860.50;5096355;28;20055;-83
2022/04/13 10:20:47;;;;;;;14.35;7.93;;;;;;;9.67;62.01;99871.59;5096733;28;20052;-82
2022/04/13 10:23:14;;;;;;;14.82;7.75;;;;;;;9.25;63.27;99846.94;5096894;28;20048;-81
2022/04/13 10:25:43;;;;;;;16.40;7.72;;;;;;;9.20;63.75;99877.28;5093667;28;20529;-81
2022/04/13 10:28:13;;;;;;;14.57;7.93;;;;;;;9.20;63.60;99874.69;5085111;28;20076;-83
2022/04/13 10:30:42;;;;;;;18.75;8.93;;;;;;;9.11;63.66;99880.69;5077759;28;20056;-84
2022/04/13 10:33:13;;;;;;;17.30;9.05;;;;;;;8.97;63.91;99874.44;5085425;28;20113;-79
2022/04/13 10:35:43;;;;;;;18.85;8.50;;;;;;;8.97;64.17;99862.31;5096932;28;20105;-79
2022/04/13 10:38:10;;;;;;;16.48;8.93;;;;;;;9.26;64.00;99868.66;5097127;28;20105;-82
2022/04/13 10:40:42;;;;;;;15.55;8.77;;;;;;;9.53;62.90;99875.81;5096529;28;20504;-84
2022/04/13 10:43:13;;;;;;;21.17;9.05;;;;;;;9.35;63.19;99866.13;5096527;28;20505;-86
2022/04/13 10:45:46;;;;;;;17.70;8.38;;;;;;;9.40;63.55;99860.09;5096556;28;20060;-84
2022/04/13 10:48:22;;;;;;;15.50;8.60;;;;;;;9.35;63.17;99863.50;5096950;28;20056;-79
2022/04/13 10:50:54;;;;;;;17.17;7.88;;;;;;;9.53;63.22;99884.53;5097276;28;20056;-84
2022/04/13 10:53:29;;;;;;;15.40;8.15;;;;;;;9.57;63.85;99886.31;5096566;28;20398;-84
2022/04/13 10:56:03;;;;;;;14.60;8.43;;;;;;;9.72;63.06;99893.38;5094303;28;20493;-80
2022/04/13 10:58:43;;;;;;;15.77;8.07;;;;;;;9.66;62.58;99850.69;5096181;28;20062;-80
2022/04/13 11:01:13;;;;;;;16.73;9.00;;;;;;;9.60;63.16;99901.09;5094282;28;20408;-81
2022/04/13 11:03:40;;;;;;;15.57;8.00;;;;;;;9.34;63.50;99893.06;5093420;28;20048;-80
2022/04/13 11:06:10;;;;;;;18.20;8.80;;;;;;;9.23;64.15;99895.56;5095965;28;20052;-81
2022/04/13 11:08:58;;;;;;;20.00;8.57;;;;;;;9.26;64.60;99899.94;5098008;28;20044;-77
2022/04/13 11:11:28;;;;;;;17.77;8.50;;;;;;;9.18;64.68;99887.72;5108382;28;20056;-78
2022/04/13 11:13:55;;;;;;;17.90;9.05;;;;;;;9.08;64.42;99895.41;5106642;28;20063;-80
2022/04/13 11:16:32;;;;;;;17.60;9.15;;;;;;;8.88;65.01;99884.78;5094751;28;20051;-80
2022/04/13 11:19:05;;;;;;;18.45;9.23;;;;;;;8.85;64.95;99892.56;5095932;28;20055;-80
2022/04/13 11:21:37;;;;;;;16.08;8.57;;;;;;;8.81;65.29;99904.69;5095990;28;20044;-81
2022/04/13 11:24:04;;;;;;;18.60;8.60;;;;;;;8.57;66.05;99867.09;5094352;28;20048;-79
2022/04/13 11:26:35;;;;;;;15.40;8.63;;;;;;;8.68;65.93;99897.59;5097218;28;20051;-82
2022/04/13 11:29:22;;;;;;;17.63;8.68;;;;;;;8.46;65.96;99925.97;5093607;28;20063;-80
2022/04/13 11:32:01;;;;;;;15.25;8.45;;;;;;;8.26;67.06;99897.06;5094121;28;20052;-82
2022/04/13 11:34:29;;;;;;;16.13;8.20;;;;;;;8.14;67.57;99910.75;5094312;28;20058;-80
2022/04/13 11:37:02;;;;;;;17.15;8.32;;;;;;;8.15;67.14;99915.13;5095161;28;20048;-78
2022/04/13 11:40:05;;;;;;;18.02;7.85;;;;;;;7.96;67.62;99900.09;5095909;28;20071;-79
2022/04/13 11:42:36;;;;;;;18.33;8.48;;;;;;;7.98;67.50;99911.41;5096716;28;20048;-83
2022/04/13 11:45:05;;;;;;;17.55;8.45;;;;;;;8.11;67.64;99904.63;5095807;28;20433;-80
2022/04/13 11:47:53;;;;;;;18.77;8.20;;;;;;;7.86;67.76;99899.09;5110893;28;20044;-81
2022/04/13 11:50:26;;;;;;;19.77;9.00;;;;;;;7.70;67.87;99924.00;5110145;28;20058;-82
2022/04/13 11:52:59;;;;;;;17.17;8.60;;;;;;;7.64;68.77;99926.50;5108987;28;20052;-81